Time;durP1;ratioP1;P1;durP2;ratioP2;P2;SDS_P1;SDS_P2;PMS_P1;PMS_P2;Temp;Humidity;BMP_temperature;BMP_pressure;BME280_temperature;BME280_humidity;BME280_pressure;Samples;Min_cycle;Max_cycle;Signal;HPM_P1;HPM_P2
2021/06/24 00:01:05;;;;;;;13.60;7.63;;;;;;;;;;5074554;28;20047;-60
2021/06/24 00:03:32;;;;;;;11.90;7.03;;;;;;;;;;5074660;28;20027;-60
2021/06/24 00:05:58;;;;;;;12.68;7.35;;;;;;;;;;5074361;28;20020;-60
2021/06/24 00:08:24;;;;;;;13.88;7.55;;;;;;;;;;5074174;28;20027;-60
2021/06/24 00:10:51;;;;;;;12.40;7.35;;;;;;;;;;5073962;28;20051;-62
2021/06/24 00:13:17;;;;;;;14.73;7.10;;;;;;;;;;5074038;28;20082;-61
2021/06/24 00:15:43;;;;;;;12.52;7.75;;;;;;;;;;5073822;28;20031;-60
2021/06/24 00:18:09;;;;;;;12.75;7.28;;;;;;;;;;5073887;28;20419;-60
2021/06/24 00:20:39;;;;;;;16.80;7.72;;;;;;;;;;5073844;28;20134;-60
2021/06/24 00:23:05;;;;;;;17.25;8.55;;;;;;;;;;5073836;28;20057;-60
2021/06/24 00:25:32;;;;;;;15.32;7.68;;;;;;;;;;5074022;28;20034;-61
2021/06/24 00:27:58;;;;;;;12.63;8.23;;;;;;;;;;5073756;28;20463;-59
2021/06/24 00:30:24;;;;;;;14.68;8.07;;;;;;;;;;5073820;28;20024;-60
2021/06/24 00:32:50;;;;;;;13.13;8.82;;;;;;;;;;5073776;28;20021;-63
2021/06/24 00:35:17;;;;;;;14.43;7.53;;;;;;;;;;5073547;28;20043;-63
2021/06/24 00:37:43;;;;;;;13.07;7.82;;;;;;;;;;5073614;28;20021;-60
2021/06/24 00:40:10;;;;;;;12.05;7.95;;;;;;;;;;5073541;28;20047;-60
2021/06/24 00:42:37;;;;;;;15.35;8.98;;;;;;;;;;5073437;28;20464;-60
2021/06/24 00:45:04;;;;;;;12.88;7.80;;;;;;;;;;5073459;28;20025;-60
2021/06/24 00:47:30;;;;;;;13.32;8.30;;;;;;;;;;5073336;28;20043;-59
2021/06/24 00:49:56;;;;;;;12.73;7.85;;;;;;;;;;5073305;28;20044;-60
2021/06/24 00:52:22;;;;;;;10.85;7.28;;;;;;;;;;5073418;28;20031;-60
2021/06/24 00:54:48;;;;;;;17.35;8.20;;;;;;;;;;5073258;28;20036;-61
2021/06/24 00:57:14;;;;;;;11.98;7.90;;;;;;;;;;5073031;28;20044;-59
2021/06/24 00:59:41;;;;;;;11.95;7.20;;;;;;;;;;5072923;28;20066;-60
2021/06/24 01:02:07;;;;;;;12.70;7.63;;;;;;;;;;5072779;28;20025;-60
2021/06/24 01:04:34;;;;;;;13.00;7.50;;;;;;;;;;5073183;28;20100;-60
2021/06/24 01:07:00;;;;;;;15.82;8.13;;;;;;;;;;5072819;28;20154;-60
2021/06/24 01:09:26;;;;;;;13.55;8.20;;;;;;;;;;5072760;28;20419;-60
2021/06/24 01:11:54;;;;;;;12.70;8.27;;;;;;;;;;5073213;28;20051;-60
2021/06/24 01:14:20;;;;;;;15.82;8.68;;;;;;;;;;5073221;28;20468;-60
2021/06/24 01:16:46;;;;;;;16.23;8.38;;;;;;;;;;5072749;28;20105;-60
2021/06/24 01:19:13;;;;;;;14.18;7.75;;;;;;;;;;5072731;28;20020;-60
2021/06/24 01:21:39;;;;;;;13.70;7.82;;;;;;;;;;5073089;28;20028;-60
2021/06/24 01:24:05;;;;;;;13.32;7.57;;;;;;;;;;5072656;28;20103;-60
2021/06/24 01:26:31;;;;;;;14.18;7.22;;;;;;;;;;5072559;28;20021;-61
2021/06/24 01:28:58;;;;;;;15.38;8.00;;;;;;;;;;5072727;28;20035;-60
2021/06/24 01:31:24;;;;;;;15.90;7.03;;;;;;;;;;5072341;28;20576;-63
2021/06/24 01:33:50;;;;;;;12.32;7.82;;;;;;;;;;5072342;28;20029;-60
2021/06/24 01:36:16;;;;;;;14.18;8.27;;;;;;;;;;5072120;28;20452;-60
2021/06/24 01:38:45;;;;;;;14.02;8.38;;;;;;;;;;5072314;28;20017;-60
2021/06/24 01:41:12;;;;;;;15.35;8.70;;;;;;;;;;5072164;28;20033;-60
2021/06/24 01:43:38;;;;;;;14.40;8.35;;;;;;;;;;5072325;28;20025;-63
2021/06/24 01:46:04;;;;;;;13.55;8.52;;;;;;;;;;5072393;28;20074;-62
2021/06/24 01:48:30;;;;;;;14.93;9.23;;;;;;;;;;5072387;28;20035;-60
2021/06/24 01:51:04;;;;;;;14.07;7.90;;;;;;;;;;5072599;28;20020;-60
2021/06/24 01:53:30;;;;;;;14.43;8.65;;;;;;;;;;5072279;28;20021;-60
2021/06/24 01:55:56;;;;;;;13.48;8.32;;;;;;;;;;5072035;28;20039;-60
2021/06/24 01:58:24;;;;;;;13.13;8.20;;;;;;;;;;5072122;28;20047;-60
2021/06/24 02:00:52;;;;;;;13.85;8.57;;;;;;;;;;5072250;28;20113;-61
2021/06/24 02:03:19;;;;;;;14.65;8.68;;;;;;;;;;5072236;28;20036;-60
2021/06/24 02:05:47;;;;;;;12.65;8.30;;;;;;;;;;5072205;28;20387;-61
2021/06/24 02:08:14;;;;;;;13.00;8.70;;;;;;;;;;5072127;28;20070;-60
2021/06/24 02:10:41;;;;;;;14.77;8.77;;;;;;;;;;5072391;28;20056;-60
2021/06/24 02:13:07;;;;;;;15.32;8.60;;;;;;;;;;5072153;28;20052;-60
2021/06/24 02:15:33;;;;;;;11.65;8.02;;;;;;;;;;5072043;28;20036;-63
2021/06/24 02:17:59;;;;;;;17.92;9.23;;;;;;;;;;5072274;28;20020;-60
2021/06/24 02:20:25;;;;;;;12.55;8.63;;;;;;;;;;5072315;28;20035;-61
2021/06/24 02:22:51;;;;;;;16.55;8.15;;;;;;;;;;5072165;28;20025;-60
2021/06/24 02:25:17;;;;;;;15.85;7.93;;;;;;;;;;5071963;28;20103;-59
2021/06/24 02:27:43;;;;;;;14.98;7.18;;;;;;;;;;5072095;28;20163;-60
2021/06/24 02:30:11;;;;;;;14.63;7.20;;;;;;;;;;5072013;28;20024;-63
2021/06/24 02:32:37;;;;;;;17.77;8.70;;;;;;;;;;5072012;28;20132;-60
2021/06/24 02:35:04;;;;;;;16.13;8.57;;;;;;;;;;5071816;28;20559;-60
2021/06/24 02:37:31;;;;;;;14.73;9.32;;;;;;;;;;5071931;28;20476;-60
2021/06/24 02:39:57;;;;;;;15.15;7.95;;;;;;;;;;5071858;28;20036;-59
2021/06/24 02:42:23;;;;;;;15.80;8.80;;;;;;;;;;5071954;28;20103;-60
2021/06/24 02:44:49;;;;;;;14.38;8.52;;;;;;;;;;5073848;28;20039;-61
2021/06/24 02:47:15;;;;;;;12.13;7.72;;;;;;;;;;5075768;28;20032;-60
2021/06/24 02:49:41;;;;;;;14.10;8.35;;;;;;;;;;5075858;28;20021;-60
2021/06/24 02:52:07;;;;;;;13.68;8.35;;;;;;;;;;5075770;28;20532;-59
2021/06/24 02:54:33;;;;;;;14.15;8.00;;;;;;;;;;5075578;28;20032;-59
2021/06/24 02:57:00;;;;;;;15.57;8.43;;;;;;;;;;5075435;28;20040;-60
2021/06/24 02:59:27;;;;;;;13.90;7.80;;;;;;;;;;5075626;28;20479;-60
2021/06/24 03:01:54;;;;;;;14.60;8.65;;;;;;;;;;5075555;28;20029;-60
2021/06/24 03:04:22;;;;;;;13.25;8.10;;;;;;;;;;5075532;28;20025;-60
2021/06/24 03:06:51;;;;;;;16.33;8.45;;;;;;;;;;5075543;28;20543;-60
2021/06/24 03:09:17;;;;;;;15.68;8.63;;;;;;;;;;5075316;28;20039;-60
2021/06/24 03:11:43;;;;;;;15.45;9.13;;;;;;;;;;5075325;28;20024;-60
2021/06/24 03:14:09;;;;;;;16.95;8.18;;;;;;;;;;5075337;28;20099;-60
2021/06/24 03:16:35;;;;;;;18.40;8.95;;;;;;;;;;5075002;28;20068;-60
2021/06/24 03:19:01;;;;;;;15.10;8.65;;;;;;;;;;5074926;28;20049;-60
2021/06/24 03:21:28;;;;;;;16.83;8.80;;;;;;;;;;5075411;28;20035;-61
2021/06/24 03:23:54;;;;;;;12.57;8.13;;;;;;;;;;5075468;28;20371;-60
2021/06/24 03:26:20;;;;;;;13.43;8.50;;;;;;;;;;5074829;28;20201;-60
2021/06/24 03:28:46;;;;;;;12.93;8.27;;;;;;;;;;5074824;28;20024;-60
2021/06/24 03:31:12;;;;;;;13.40;8.20;;;;;;;;;;5073413;28;20024;-60
2021/06/24 03:33:38;;;;;;;13.88;8.25;;;;;;;;;;5074935;28;20021;-60
2021/06/24 03:36:04;;;;;;;12.55;8.60;;;;;;;;;;5074632;28;20154;-63
2021/06/24 03:38:31;;;;;;;14.98;8.63;;;;;;;;;;5074834;28;20086;-59
2021/06/24 03:40:57;;;;;;;14.52;7.90;;;;;;;;;;5074611;28;20195;-60
2021/06/24 03:43:23;;;;;;;13.75;7.75;;;;;;;;;;5074648;28;20098;-60
2021/06/24 03:45:49;;;;;;;10.55;7.03;;;;;;;;;;5074717;28;20116;-61
2021/06/24 03:48:15;;;;;;;15.63;7.93;;;;;;;;;;5074734;28;20021;-60
2021/06/24 03:50:41;;;;;;;11.65;7.55;;;;;;;;;;5074587;28;20058;-60
2021/06/24 03:53:08;;;;;;;16.98;7.78;;;;;;;;;;5074465;28;20047;-60
2021/06/24 03:55:44;;;;;;;15.57;8.50;;;;;;;;;;5073797;28;20032;-60
2021/06/24 03:58:11;;;;;;;16.60;7.60;;;;;;;;;;5074272;28;20635;-63
2021/06/24 04:00:38;;;;;;;14.05;7.63;;;;;;;;;;5073072;28;20031;-60
2021/06/24 04:03:04;;;;;;;13.10;7.93;;;;;;;;;;5072780;28;20023;-62
2021/06/24 04:05:31;;;;;;;13.07;7.82;;;;;;;;;;5072489;28;20430;-61
2021/06/24 04:08:00;;;;;;;15.43;8.45;;;;;;;;;;5073237;28;20073;-60
2021/06/24 04:10:27;;;;;;;11.63;7.55;;;;;;;;;;5074153;28;20475;-60
2021/06/24 04:12:54;;;;;;;14.10;8.20;;;;;;;;;;5074246;28;20059;-60
2021/06/24 04:15:21;;;;;;;11.63;7.60;;;;;;;;;;5073906;28;20476;-60
2021/06/24 04:17:47;;;;;;;13.90;7.95;;;;;;;;;;5074042;28;20020;-60
2021/06/24 04:20:14;;;;;;;12.35;7.55;;;;;;;;;;5074055;28;20036;-60
2021/06/24 04:22:40;;;;;;;16.63;8.70;;;;;;;;;;5074261;28;20070;-60
2021/06/24 04:25:06;;;;;;;14.90;7.75;;;;;;;;;;5073875;28;20104;-61
2021/06/24 04:27:32;;;;;;;15.38;8.13;;;;;;;;;;5073953;28;20032;-60
2021/06/24 04:29:58;;;;;;;18.80;8.25;;;;;;;;;;5073693;28;20060;-62
2021/06/24 04:32:25;;;;;;;17.60;8.07;;;;;;;;;;5073689;28;20024;-63
2021/06/24 04:34:51;;;;;;;14.88;7.85;;;;;;;;;;5073580;28;20383;-60
2021/06/24 04:37:17;;;;;;;13.02;7.55;;;;;;;;;;5074129;28;20094;-60
2021/06/24 04:39:43;;;;;;;16.88;8.23;;;;;;;;;;5072191;28;20408;-63
2021/06/24 04:42:09;;;;;;;14.32;7.53;;;;;;;;;;5073586;28;20078;-60
2021/06/24 04:44:36;;;;;;;17.52;8.23;;;;;;;;;;5072264;28;20024;-60
2021/06/24 04:47:02;;;;;;;17.95;7.95;;;;;;;;;;5073351;28;20017;-61
2021/06/24 04:49:28;;;;;;;11.90;7.55;;;;;;;;;;5073435;28;20416;-60
2021/06/24 04:51:54;;;;;;;15.93;7.80;;;;;;;;;;5073355;28;20128;-60
2021/06/24 04:54:20;;;;;;;14.18;7.63;;;;;;;;;;5073300;28;20021;-61
2021/06/24 04:56:46;;;;;;;16.27;8.63;;;;;;;;;;5073171;28;20113;-60
2021/06/24 04:59:13;;;;;;;17.13;8.02;;;;;;;;;;5073293;28;20031;-60
2021/06/24 05:01:39;;;;;;;18.13;7.70;;;;;;;;;;5073187;28;20029;-60
2021/06/24 05:04:05;;;;;;;16.13;8.18;;;;;;;;;;5073262;28;20479;-60
2021/06/24 05:06:31;;;;;;;16.15;8.07;;;;;;;;;;5072818;28;20033;-60
2021/06/24 05:08:58;;;;;;;14.85;7.85;;;;;;;;;;5071535;28;20024;-60
2021/06/24 05:11:24;;;;;;;11.65;7.80;;;;;;;;;;5073001;28;20027;-60
2021/06/24 05:13:50;;;;;;;16.05;8.23;;;;;;;;;;5072889;28;20024;-61
2021/06/24 05:16:16;;;;;;;17.20;8.10;;;;;;;;;;5072806;28;20036;-61
2021/06/24 05:18:43;;;;;;;14.15;7.70;;;;;;;;;;5072887;28;20079;-60
2021/06/24 05:21:09;;;;;;;14.45;7.25;;;;;;;;;;5072846;28;20028;-61
2021/06/24 05:23:36;;;;;;;16.13;8.02;;;;;;;;;;5072675;28;20025;-61
2021/06/24 05:26:03;;;;;;;13.30;7.50;;;;;;;;;;5072531;28;20028;-60
2021/06/24 05:28:29;;;;;;;16.08;6.97;;;;;;;;;;5072618;28;20017;-60
2021/06/24 05:30:55;;;;;;;16.73;7.32;;;;;;;;;;5072540;28;20032;-60
2021/06/24 05:33:21;;;;;;;15.95;7.22;;;;;;;;;;5072540;28;20025;-60
2021/06/24 05:35:48;;;;;;;15.70;7.43;;;;;;;;;;5072447;28;20033;-62
2021/06/24 05:38:16;;;;;;;17.17;7.25;;;;;;;;;;5072458;28;20021;-61
2021/06/24 05:40:44;;;;;;;13.10;7.03;;;;;;;;;;5072273;28;20376;-62
2021/06/24 05:43:10;;;;;;;13.88;7.72;;;;;;;;;;5072566;28;20024;-60
2021/06/24 05:45:36;;;;;;;15.90;7.25;;;;;;;;;;5072391;28;20025;-60
2021/06/24 05:48:02;;;;;;;14.02;7.85;;;;;;;;;;5072343;28;20023;-60
2021/06/24 05:50:29;;;;;;;15.93;7.18;;;;;;;;;;5072423;28;20486;-60
2021/06/24 05:52:55;;;;;;;16.60;7.03;;;;;;;;;;5072593;28;20024;-60
2021/06/24 05:58:09;;;;;;;15.55;6.80;;;;;;;;;;5072196;28;20055;-60
2021/06/24 06:00:36;;;;;;;12.15;6.88;;;;;;;;;;5072138;28;20422;-60
2021/06/24 06:03:02;;;;;;;16.52;7.43;;;;;;;;;;5072092;28;20031;-60
2021/06/24 06:05:28;;;;;;;21.80;7.50;;;;;;;;;;5072170;28;20020;-59
2021/06/24 06:07:54;;;;;;;15.90;6.50;;;;;;;;;;5072106;28;20016;-60
2021/06/24 06:10:20;;;;;;;20.30;7.85;;;;;;;;;;5072114;28;20492;-60
2021/06/24 06:12:46;;;;;;;19.48;7.95;;;;;;;;;;5071993;28;20121;-60
2021/06/24 06:15:13;;;;;;;22.48;7.63;;;;;;;;;;5071762;28;20029;-60
2021/06/24 06:17:39;;;;;;;15.68;8.18;;;;;;;;;;5071536;28;20027;-60
2021/06/24 06:20:05;;;;;;;18.40;8.57;;;;;;;;;;5071769;28;20028;-60
2021/06/24 06:22:32;;;;;;;18.63;7.70;;;;;;;;;;5071841;28;20024;-62
2021/06/24 06:24:58;;;;;;;18.45;8.48;;;;;;;;;;5071590;28;20391;-60
2021/06/24 06:27:24;;;;;;;15.63;8.27;;;;;;;;;;5071762;28;20047;-60
2021/06/24 06:29:50;;;;;;;14.00;7.53;;;;;;;;;;5071612;28;20020;-60
2021/06/24 06:32:17;;;;;;;19.08;8.70;;;;;;;;;;5071702;28;20106;-62
2021/06/24 06:34:43;;;;;;;19.25;8.45;;;;;;;;;;5071783;28;20650;-60
2021/06/24 06:37:09;;;;;;;17.15;8.48;;;;;;;;;;5071685;28;20021;-60
2021/06/24 06:39:35;;;;;;;21.88;8.07;;;;;;;;;;5071803;28;20031;-60
2021/06/24 06:42:01;;;;;;;16.88;7.80;;;;;;;;;;5071671;28;20024;-60
2021/06/24 06:44:27;;;;;;;18.08;7.88;;;;;;;;;;5071739;28;20380;-60
2021/06/24 06:46:53;;;;;;;16.08;7.82;;;;;;;;;;5071782;28;20052;-60
2021/06/24 06:49:19;;;;;;;23.38;8.75;;;;;;;;;;5070269;28;20017;-60
2021/06/24 06:51:46;;;;;;;21.65;8.10;;;;;;;;;;5071524;28;20020;-60
2021/06/24 06:54:12;;;;;;;23.77;7.95;;;;;;;;;;5071480;28;20479;-59
2021/06/24 06:56:38;;;;;;;19.23;8.30;;;;;;;;;;5071171;28;20043;-62
2021/06/24 06:59:07;;;;;;;22.35;8.38;;;;;;;;;;5071889;28;20033;-60
2021/06/24 07:01:33;;;;;;;23.33;8.75;;;;;;;;;;5071323;28;20024;-63
2021/06/24 07:03:59;;;;;;;21.25;8.70;;;;;;;;;;5071496;28;20040;-60
2021/06/24 07:06:28;;;;;;;18.10;7.97;;;;;;;;;;5071504;28;20079;-60
2021/06/24 07:08:54;;;;;;;15.35;8.02;;;;;;;;;;5071523;28;20490;-60
2021/06/24 07:11:20;;;;;;;18.38;8.38;;;;;;;;;;5071232;28;20044;-60
2021/06/24 07:13:46;;;;;;;19.75;9.32;;;;;;;;;;5071362;28;20020;-60
2021/06/24 07:16:12;;;;;;;19.08;9.18;;;;;;;;;;5071152;28;20040;-61
2021/06/24 07:18:38;;;;;;;23.27;9.43;;;;;;;;;;5071455;28;20111;-60
2021/06/24 07:21:05;;;;;;;17.88;9.23;;;;;;;;;;5071346;28;20392;-62
2021/06/24 07:23:31;;;;;;;22.48;9.23;;;;;;;;;;5071376;28;20020;-60
2021/06/24 07:25:57;;;;;;;24.95;10.18;;;;;;;;;;5071186;28;20024;-60
2021/06/24 07:28:23;;;;;;;17.95;8.90;;;;;;;;;;5071215;28;20044;-60
2021/06/24 07:30:50;;;;;;;17.60;8.60;;;;;;;;;;5072510;28;20100;-60
2021/06/24 07:33:17;;;;;;;18.33;8.75;;;;;;;;;;5074686;28;20028;-60
2021/06/24 07:35:43;;;;;;;20.30;8.75;;;;;;;;;;5074708;28;20094;-60
2021/06/24 07:38:09;;;;;;;15.32;8.00;;;;;;;;;;5073367;28;20472;-60
2021/06/24 07:40:36;;;;;;;19.98;8.27;;;;;;;;;;5074687;28;20028;-60
2021/06/24 07:43:02;;;;;;;16.20;7.95;;;;;;;;;;5074674;28;20055;-60
2021/06/24 07:45:28;;;;;;;18.02;8.63;;;;;;;;;;5074344;28;20024;-60
2021/06/24 07:47:54;;;;;;;18.55;8.38;;;;;;;;;;5074435;28;20044;-59
2021/06/24 07:50:20;;;;;;;16.95;8.32;;;;;;;;;;5074278;28;20097;-60
2021/06/24 07:52:46;;;;;;;20.73;8.77;;;;;;;;;;5074496;28;20109;-60
2021/06/24 07:55:13;;;;;;;16.95;7.63;;;;;;;;;;5074123;28;20032;-60
2021/06/24 07:57:39;;;;;;;14.45;7.57;;;;;;;;;;5073021;28;20197;-61
2021/06/24 08:00:08;;;;;;;18.85;7.88;;;;;;;;;;5074043;28;20013;-64
2021/06/24 08:02:34;;;;;;;14.57;7.90;;;;;;;;;;5073991;28;20021;-60
2021/06/24 08:05:01;;;;;;;16.50;8.65;;;;;;;;;;5072745;28;20051;-60
2021/06/24 08:07:27;;;;;;;17.48;7.82;;;;;;;;;;5074220;28;20052;-60
2021/06/24 08:09:53;;;;;;;16.75;8.05;;;;;;;;;;5074061;28;20078;-59
2021/06/24 08:12:19;;;;;;;20.45;8.75;;;;;;;;;;5074047;28;20290;-61
2021/06/24 08:14:45;;;;;;;11.38;7.72;;;;;;;;;;5073758;28;20020;-61
2021/06/24 08:17:11;;;;;;;19.90;7.82;;;;;;;;;;5073815;28;20029;-61
2021/06/24 08:19:37;;;;;;;17.98;7.53;;;;;;;;;;5073651;28;20097;-61
2021/06/24 08:22:04;;;;;;;18.33;8.38;;;;;;;;;;5073628;28;20031;-60
2021/06/24 08:24:30;;;;;;;20.67;7.80;;;;;;;;;;5073676;28;20089;-60
2021/06/24 08:26:56;;;;;;;20.60;7.93;;;;;;;;;;5073689;28;20024;-60
2021/06/24 08:29:22;;;;;;;16.60;7.82;;;;;;;;;;5073490;28;20065;-61
2021/06/24 08:31:48;;;;;;;16.25;7.63;;;;;;;;;;5073403;28;20021;-60
2021/06/24 08:34:15;;;;;;;17.02;8.30;;;;;;;;;;5073641;28;20480;-61
2021/06/24 08:36:41;;;;;;;14.60;7.65;;;;;;;;;;5073510;28;20493;-60
2021/06/24 08:39:07;;;;;;;14.70;8.20;;;;;;;;;;5073617;28;20024;-60
2021/06/24 08:41:33;;;;;;;16.85;8.05;;;;;;;;;;5072906;28;20043;-60
2021/06/24 08:43:59;;;;;;;16.40;7.45;;;;;;;;;;5073291;28;20081;-60
2021/06/24 08:46:27;;;;;;;13.82;6.53;;;;;;;;;;5073291;28;20058;-61
2021/06/24 08:48:54;;;;;;;13.60;7.15;;;;;;;;;;5073195;28;20140;-63
2021/06/24 08:51:20;;;;;;;17.50;7.45;;;;;;;;;;5072975;28;20017;-60
2021/06/24 08:53:48;;;;;;;11.95;6.45;;;;;;;;;;5073081;28;20101;-61
2021/06/24 08:56:16;;;;;;;11.50;6.93;;;;;;;;;;5072865;28;20029;-59
2021/06/24 08:58:43;;;;;;;17.58;7.20;;;;;;;;;;5072896;28;20036;-60
2021/06/24 09:01:09;;;;;;;18.85;6.53;;;;;;;;;;5073063;28;20017;-60
2021/06/24 09:03:35;;;;;;;12.80;5.78;;;;;;;;;;5073453;28;20034;-60
2021/06/24 09:06:02;;;;;;;13.05;5.80;;;;;;;;;;5072975;28;20020;-60
2021/06/24 09:08:52;;;;;;;17.60;5.70;;;;;;;;;;5072768;28;20021;-61
2021/06/24 09:11:22;;;;;;;12.73;5.40;;;;;;;;;;5072642;28;20020;-60
2021/06/24 09:13:58;;;;;;;14.10;5.60;;;;;;;;;;5073082;28;20020;-60
2021/06/24 09:16:26;;;;;;;12.90;4.93;;;;;;;;;;5072688;28;20032;-60
2021/06/24 09:18:52;;;;;;;12.65;5.00;;;;;;;;;;5072833;28;20066;-60
2021/06/24 09:21:20;;;;;;;15.57;4.93;;;;;;;;;;5072671;28;20059;-60
2021/06/24 09:23:48;;;;;;;14.32;5.05;;;;;;;;;;5072613;28;20021;-61
2021/06/24 09:26:15;;;;;;;11.82;4.95;;;;;;;;;;5072622;28;20375;-60
2021/06/24 09:28:42;;;;;;;14.23;4.75;;;;;;;;;;5072418;28;20024;-60
2021/06/24 09:31:27;;;;;;;15.93;4.90;;;;;;;;;;5072449;28;20024;-60
2021/06/24 09:33:54;;;;;;;13.40;4.53;;;;;;;;;;5072336;28;20020;-60
2021/06/24 09:36:38;;;;;;;14.55;4.47;;;;;;;;;;5070880;28;20044;-60
2021/06/24 09:39:06;;;;;;;17.00;4.40;;;;;;;;;;5072380;28;20017;-63
2021/06/24 09:41:33;;;;;;;15.48;4.15;;;;;;;;;;5072365;28;20020;-63
2021/06/24 09:43:59;;;;;;;17.23;4.05;;;;;;;;;;5072391;28;20016;-63
2021/06/24 09:46:30;;;;;;;11.05;3.97;;;;;;;;;;5072384;28;20029;-63
2021/06/24 09:48:59;;;;;;;14.40;4.25;;;;;;;;;;5070861;28;20051;-60
2021/06/24 09:51:25;;;;;;;13.55;3.72;;;;;;;;;;5070872;28;20024;-61
2021/06/24 09:53:54;;;;;;;11.80;3.78;;;;;;;;;;5071463;28;20074;-59
2021/06/24 09:56:23;;;;;;;17.10;4.30;;;;;;;;;;5071769;28;20037;-61
2021/06/24 09:58:50;;;;;;;10.50;3.55;;;;;;;;;;5072034;28;20491;-60
2021/06/24 10:01:32;;;;;;;13.32;4.03;;;;;;;;;;5072307;28;20111;-60
2021/06/24 10:03:58;;;;;;;;;;;;;;;;;;5072376;28;20499;-60
2021/06/24 10:06:24;;;;;;;8.68;3.65;;;;;;;;;;5071730;28;19916;-60
2021/06/24 10:08:51;;;;;;;12.63;3.50;;;;;;;;;;5071828;28;20023;-60
2021/06/24 10:11:18;;;;;;;11.80;3.33;;;;;;;;;;5071928;28;20028;-61
2021/06/24 10:13:44;;;;;;;14.05;3.67;;;;;;;;;;5071960;28;20017;-60
2021/06/24 10:16:11;;;;;;;13.25;3.30;;;;;;;;;;5072000;28;20091;-61
2021/06/24 10:18:37;;;;;;;14.23;3.55;;;;;;;;;;5071911;28;20483;-60
2021/06/24 10:21:03;;;;;;;12.85;3.95;;;;;;;;;;5071910;28;20468;-60
2021/06/24 10:23:30;;;;;;;12.20;4.07;;;;;;;;;;5071850;28;20091;-62
2021/06/24 10:25:56;;;;;;;15.80;3.17;;;;;;;;;;5071581;28;20029;-60
2021/06/24 10:28:22;;;;;;;15.02;3.65;;;;;;;;;;5071851;28;20476;-59
2021/06/24 10:30:48;;;;;;;18.58;3.55;;;;;;;;;;5071780;28;20553;-60
2021/06/24 10:33:16;;;;;;;12.88;2.92;;;;;;;;;;5071724;28;20082;-60
2021/06/24 10:35:44;;;;;;;12.18;3.63;;;;;;;;;;5072081;28;20068;-60
2021/06/24 10:38:13;;;;;;;10.40;3.13;;;;;;;;;;5071712;28;20052;-61
2021/06/24 10:40:40;;;;;;;23.40;4.32;;;;;;;;;;5071713;28;20479;-59
2021/06/24 10:43:13;;;;;;;19.40;2.80;;;;;;;;;;5071783;28;20035;-60
2021/06/24 10:45:40;;;;;;;14.20;3.83;;;;;;;;;;5071783;28;20031;-60
2021/06/24 10:48:21;;;;;;;17.90;4.00;;;;;;;;;;5071527;28;20509;-60
2021/06/24 10:50:56;;;;;;;12.95;3.90;;;;;;;;;;5071569;28;20116;-61
2021/06/24 10:53:22;;;;;;;12.77;3.85;;;;;;;;;;5071707;28;20021;-60
2021/06/24 10:55:50;;;;;;;12.35;3.13;;;;;;;;;;5071268;28;20076;-62
2021/06/24 10:58:19;;;;;;;18.25;4.05;;;;;;;;;;5071219;28;20041;-60
2021/06/24 11:00:47;;;;;;;15.60;3.88;;;;;;;;;;5071620;28;20441;-61
2021/06/24 11:03:17;;;;;;;15.50;4.05;;;;;;;;;;5071420;28;20104;-60
2021/06/24 11:05:44;;;;;;;12.63;3.60;;;;;;;;;;5074084;28;20021;-60
2021/06/24 11:08:11;;;;;;;16.40;3.75;;;;;;;;;;5073539;28;20020;-60
2021/06/24 11:10:58;;;;;;;14.55;3.58;;;;;;;;;;5074979;28;20020;-60
2021/06/24 11:13:36;;;;;;;11.85;2.85;;;;;;;;;;5071066;28;20032;-60
2021/06/24 11:16:20;;;;;;;17.65;4.30;;;;;;;;;;5074875;28;20036;-59
2021/06/24 11:18:53;;;;;;;20.38;4.18;;;;;;;;;;5073663;28;20024;-60
2021/06/24 11:21:31;;;;;;;15.00;3.78;;;;;;;;;;5075584;28;20021;-60
2021/06/24 11:24:00;;;;;;;11.80;2.88;;;;;;;;;;5074908;28;20017;-60
2021/06/24 11:26:29;;;;;;;9.63;3.05;;;;;;;;;;5074769;28;20489;-60
2021/06/24 11:28:58;;;;;;;16.85;3.20;;;;;;;;;;5075020;28;20479;-60
2021/06/24 11:31:42;;;;;;;12.35;3.65;;;;;;;;;;5074496;28;20013;-61
2021/06/24 11:36:53;;;;;;;10.60;3.78;;;;;;;;;;5074418;28;20071;-60
2021/06/24 11:39:21;;;;;;;14.48;3.60;;;;;;;;;;5074637;28;20020;-60
2021/06/24 11:41:55;;;;;;;12.45;2.60;;;;;;;;;;5074608;28;20074;-61
2021/06/24 11:44:28;;;;;;;14.60;3.22;;;;;;;;;;5074419;28;20024;-63
2021/06/24 11:46:56;;;;;;;17.33;3.78;;;;;;;;;;5074594;28;20078;-60
2021/06/24 12:00:41;;;;;;;13.73;3.00;;;;;;;;;;5074214;28;20039;-61
2021/06/24 12:03:18;;;;;;;11.77;3.20;;;;;;;;;;5074121;28;20021;-61
2021/06/24 12:05:50;;;;;;;8.73;2.75;;;;;;;;;;5074074;28;20021;-60
2021/06/24 12:08:20;;;;;;;14.35;3.63;;;;;;;;;;5074035;28;20025;-60
2021/06/24 12:10:46;;;;;;;9.05;2.67;;;;;;;;;;5074076;28;20039;-60
2021/06/24 12:13:13;;;;;;;20.05;4.47;;;;;;;;;;5074078;28;21007;-60
2021/06/24 12:15:39;;;;;;;14.27;3.47;;;;;;;;;;5073635;28;20071;-60
2021/06/24 12:18:05;;;;;;;17.02;3.97;;;;;;;;;;5073785;28;20025;-62
2021/06/24 12:20:31;;;;;;;14.98;4.90;;;;;;;;;;5073803;28;20063;-60
2021/06/24 12:23:05;;;;;;;10.07;3.83;;;;;;;;;;5073819;28;20024;-60
2021/06/24 12:25:35;;;;;;;12.63;3.50;;;;;;;;;;5073753;28;20553;-60
2021/06/24 12:28:06;;;;;;;13.13;3.28;;;;;;;;;;5073939;28;20070;-60
2021/06/24 12:30:36;;;;;;;18.30;3.85;;;;;;;;;;5073682;28;20020;-60
2021/06/24 12:33:09;;;;;;;12.98;3.33;;;;;;;;;;5074042;28;20372;-62
2021/06/24 12:35:37;;;;;;;15.02;3.35;;;;;;;;;;5073474;28;20510;-60
2021/06/24 12:38:04;;;;;;;13.73;4.03;;;;;;;;;;5073989;28;20094;-60
2021/06/24 12:40:37;;;;;;;13.80;3.13;;;;;;;;;;5073559;28;20056;-60
2021/06/24 12:43:04;;;;;;;13.20;4.40;;;;;;;;;;5073512;28;20032;-60
2021/06/24 12:45:31;;;;;;;11.55;3.22;;;;;;;;;;5073336;28;20023;-60
2021/06/24 12:47:58;;;;;;;16.70;4.20;;;;;;;;;;5073452;28;20016;-60
2021/06/24 12:50:29;;;;;;;16.95;4.00;;;;;;;;;;5073424;28;20993;-61
2021/06/24 12:53:06;;;;;;;19.08;4.25;;;;;;;;;;5073515;28;20024;-63
2021/06/24 12:55:36;;;;;;;16.10;3.95;;;;;;;;;;5073066;28;20029;-60
2021/06/24 12:58:03;;;;;;;14.25;3.67;;;;;;;;;;5072938;28;20137;-61
2021/06/24 13:00:29;;;;;;;12.27;4.10;;;;;;;;;;5073315;28;20020;-60
2021/06/24 13:02:55;;;;;;;14.10;4.38;;;;;;;;;;5072985;28;20075;-61
2021/06/24 13:05:25;;;;;;;17.27;4.30;;;;;;;;;;5073205;28;20095;-60
2021/06/24 13:07:54;;;;;;;23.10;4.90;;;;;;;;;;5073064;28;20024;-60
2021/06/24 13:10:20;;;;;;;13.05;4.00;;;;;;;;;;5072726;28;20056;-60
2021/06/24 13:12:50;;;;;;;16.33;4.00;;;;;;;;;;5072999;28;20024;-60
2021/06/24 13:15:32;;;;;;;13.55;4.15;;;;;;;;;;5072717;28;20029;-60
2021/06/24 13:17:58;;;;;;;17.92;4.70;;;;;;;;;;5072874;28;20020;-59
2021/06/24 13:20:24;;;;;;;10.07;3.53;;;;;;;;;;5072963;28;20017;-60
2021/06/24 13:22:50;;;;;;;14.73;4.30;;;;;;;;;;5072723;28;20066;-60
2021/06/24 13:25:20;;;;;;;18.75;4.53;;;;;;;;;;5072733;28;20518;-61
2021/06/24 13:27:46;;;;;;;16.10;3.85;;;;;;;;;;5072441;28;20020;-61
2021/06/24 13:30:17;;;;;;;14.98;4.18;;;;;;;;;;5071228;28;20020;-60
2021/06/24 13:32:47;;;;;;;15.32;4.20;;;;;;;;;;5072502;28;20479;-60
2021/06/24 13:35:26;;;;;;;16.48;4.28;;;;;;;;;;5072434;28;20365;-60
2021/06/24 13:37:55;;;;;;;20.63;4.45;;;;;;;;;;5072471;28;20032;-60
2021/06/24 13:40:29;;;;;;;21.95;4.35;;;;;;;;;;5072394;28;20138;-60
2021/06/24 13:42:58;;;;;;;14.88;3.90;;;;;;;;;;5072514;28;20032;-60
2021/06/24 13:45:24;;;;;;;14.68;3.78;;;;;;;;;;5071112;28;20392;-62
2021/06/24 13:47:50;;;;;;;27.38;5.82;;;;;;;;;;5072420;28;20071;-61
2021/06/24 13:50:17;;;;;;;16.17;4.18;;;;;;;;;;5072434;28;20024;-60
2021/06/24 13:52:43;;;;;;;15.45;4.15;;;;;;;;;;5072201;28;20095;-61
2021/06/24 13:55:10;;;;;;;24.67;5.55;;;;;;;;;;5072061;28;20514;-60
2021/06/24 13:57:36;;;;;;;13.27;4.00;;;;;;;;;;5072092;28;20488;-60
2021/06/24 14:00:06;;;;;;;13.30;4.03;;;;;;;;;;5072524;28;20075;-61
2021/06/24 14:02:32;;;;;;;18.92;4.68;;;;;;;;;;5070645;28;20530;-61
2021/06/24 14:04:58;;;;;;;14.93;3.70;;;;;;;;;;5071971;28;20021;-60
2021/06/24 14:07:25;;;;;;;15.45;4.30;;;;;;;;;;5071912;28;20035;-62
2021/06/24 14:09:51;;;;;;;14.52;4.30;;;;;;;;;;5072258;28;20095;-60
2021/06/24 14:12:17;;;;;;;16.05;4.82;;;;;;;;;;5072152;28;20024;-63
2021/06/24 14:14:43;;;;;;;18.40;4.45;;;;;;;;;;5071942;28;20021;-60
2021/06/24 14:17:09;;;;;;;14.73;4.63;;;;;;;;;;5071944;28;20078;-59
2021/06/24 14:19:35;;;;;;;20.92;4.57;;;;;;;;;;5070467;28;20024;-60
2021/06/24 14:22:04;;;;;;;18.05;4.63;;;;;;;;;;5071767;28;20063;-60
2021/06/24 14:24:30;;;;;;;19.52;4.35;;;;;;;;;;5071866;28;20027;-60
2021/06/24 14:26:56;;;;;;;18.35;4.40;;;;;;;;;;5071850;28;20052;-61
2021/06/24 14:29:26;;;;;;;13.70;4.28;;;;;;;;;;5071928;28;20495;-61
2021/06/24 14:31:52;;;;;;;15.23;3.38;;;;;;;;;;5071970;28;20501;-60
2021/06/24 14:34:18;;;;;;;18.40;4.65;;;;;;;;;;5071746;28;20028;-60
2021/06/24 14:36:45;;;;;;;24.15;4.90;;;;;;;;;;5070476;28;20111;-63
2021/06/24 14:39:12;;;;;;;17.77;4.05;;;;;;;;;;5072359;28;20028;-60
2021/06/24 14:41:39;;;;;;;18.85;4.40;;;;;;;;;;5075655;28;20009;-60
2021/06/24 14:44:05;;;;;;;14.88;4.28;;;;;;;;;;5074351;28;20635;-63
2021/06/24 14:46:31;;;;;;;16.38;4.43;;;;;;;;;;5075615;28;20021;-60
2021/06/24 14:48:57;;;;;;;20.30;4.82;;;;;;;;;;5075441;28;20099;-60